sensor_id;sensor_type;location;lat;lon;timestamp;P1;durP1;ratioP1;P2;durP2;ratioP2
16837;SDS011;19510;54.486;9.046;2023-08-20T00:01:44;11.23;;;6.32;;
16837;SDS011;19510;54.486;9.046;2023-08-20T00:04:10;9.52;;;5.57;;
16837;SDS011;19510;54.486;9.046;2023-08-20T00:06:38;14.65;;;5.93;;
16837;SDS011;19510;54.486;9.046;2023-08-20T00:09:04;13.10;;;6.15;;
16837;SDS011;19510;54.486;9.046;2023-08-20T00:11:32;14.10;;;6.80;;
16837;SDS011;19510;54.486;9.046;2023-08-20T00:14:01;12.90;;;6.28;;
16837;SDS011;19510;54.486;9.046;2023-08-20T00:16:27;13.27;;;6.63;;
16837;SDS011;19510;54.486;9.046;2023-08-20T00:18:53;17.35;;;7.20;;
16837;SDS011;19510;54.486;9.046;2023-08-20T00:21:19;13.60;;;6.32;;
16837;SDS011;19510;54.486;9.046;2023-08-20T00:23:45;13.63;;;6.10;;
16837;SDS011;19510;54.486;9.046;2023-08-20T00:26:11;13.95;;;6.60;;
16837;SDS011;19510;54.486;9.046;2023-08-20T00:28:37;13.07;;;7.20;;
16837;SDS011;19510;54.486;9.046;2023-08-20T00:31:04;19.85;;;7.50;;
16837;SDS011;19510;54.486;9.046;2023-08-20T00:33:30;13.40;;;7.03;;
16837;SDS011;19510;54.486;9.046;2023-08-20T00:35:56;14.45;;;6.93;;
16837;SDS011;19510;54.486;9.046;2023-08-20T00:38:22;25.42;;;7.70;;
16837;SDS011;19510;54.486;9.046;2023-08-20T00:40:48;14.10;;;6.70;;
16837;SDS011;19510;54.486;9.046;2023-08-20T00:43:14;13.02;;;7.13;;
16837;SDS011;19510;54.486;9.046;2023-08-20T00:45:40;16.90;;;7.45;;
16837;SDS011;19510;54.486;9.046;2023-08-20T00:48:07;14.13;;;6.80;;
16837;SDS011;19510;54.486;9.046;2023-08-20T00:50:33;16.23;;;7.07;;
16837;SDS011;19510;54.486;9.046;2023-08-20T00:52:59;12.60;;;6.53;;
16837;SDS011;19510;54.486;9.046;2023-08-20T00:55:25;15.95;;;6.55;;
16837;SDS011;19510;54.486;9.046;2023-08-20T00:57:56;14.10;;;7.20;;
16837;SDS011;19510;54.486;9.046;2023-08-20T01:00:22;15.23;;;8.38;;
16837;SDS011;19510;54.486;9.046;2023-08-20T01:02:49;16.90;;;6.65;;
16837;SDS011;19510;54.486;9.046;2023-08-20T01:05:14;14.65;;;6.90;;
16837;SDS011;19510;54.486;9.046;2023-08-20T01:10:52;15.60;;;7.00;;
16837;SDS011;19510;54.486;9.046;2023-08-20T01:13:24;19.75;;;6.72;;
16837;SDS011;19510;54.486;9.046;2023-08-20T01:15:50;14.57;;;7.13;;
16837;SDS011;19510;54.486;9.046;2023-08-20T01:18:17;13.35;;;6.85;;
16837;SDS011;19510;54.486;9.046;2023-08-20T01:20:47;13.40;;;6.53;;
16837;SDS011;19510;54.486;9.046;2023-08-20T01:23:24;16.90;;;6.72;;
16837;SDS011;19510;54.486;9.046;2023-08-20T01:29:14;13.98;;;6.53;;
16837;SDS011;19510;54.486;9.046;2023-08-20T01:31:40;13.52;;;6.63;;
16837;SDS011;19510;54.486;9.046;2023-08-20T01:34:06;16.33;;;6.90;;
16837;SDS011;19510;54.486;9.046;2023-08-20T01:36:32;15.32;;;8.00;;
16837;SDS011;19510;54.486;9.046;2023-08-20T01:38:57;15.65;;;7.78;;
16837;SDS011;19510;54.486;9.046;2023-08-20T01:41:23;16.27;;;8.23;;
16837;SDS011;19510;54.486;9.046;2023-08-20T01:43:49;22.30;;;9.65;;
16837;SDS011;19510;54.486;9.046;2023-08-20T01:46:14;28.30;;;10.77;;
16837;SDS011;19510;54.486;9.046;2023-08-20T01:48:40;26.90;;;11.57;;
16837;SDS011;19510;54.486;9.046;2023-08-20T01:51:06;22.30;;;9.95;;
16837;SDS011;19510;54.486;9.046;2023-08-20T01:53:31;28.83;;;11.20;;
16837;SDS011;19510;54.486;9.046;2023-08-20T01:55:57;24.80;;;10.55;;
16837;SDS011;19510;54.486;9.046;2023-08-20T01:58:23;25.38;;;10.65;;
16837;SDS011;19510;54.486;9.046;2023-08-20T02:00:50;24.35;;;9.93;;
16837;SDS011;19510;54.486;9.046;2023-08-20T02:03:16;24.20;;;10.88;;
16837;SDS011;19510;54.486;9.046;2023-08-20T02:05:42;23.23;;;10.65;;
16837;SDS011;19510;54.486;9.046;2023-08-20T02:08:07;31.40;;;10.88;;
16837;SDS011;19510;54.486;9.046;2023-08-20T02:10:33;21.00;;;10.30;;
16837;SDS011;19510;54.486;9.046;2023-08-20T02:12:59;26.02;;;11.43;;
16837;SDS011;19510;54.486;9.046;2023-08-20T02:15:25;23.63;;;11.13;;
16837;SDS011;19510;54.486;9.046;2023-08-20T02:17:50;26.23;;;12.50;;
16837;SDS011;19510;54.486;9.046;2023-08-20T02:20:16;23.48;;;11.35;;
16837;SDS011;19510;54.486;9.046;2023-08-20T02:22:42;24.55;;;10.95;;
16837;SDS011;19510;54.486;9.046;2023-08-20T02:25:10;20.67;;;10.70;;
16837;SDS011;19510;54.486;9.046;2023-08-20T02:27:36;22.02;;;10.90;;
16837;SDS011;19510;54.486;9.046;2023-08-20T02:30:01;22.42;;;10.93;;
16837;SDS011;19510;54.486;9.046;2023-08-20T02:32:28;22.83;;;10.25;;
16837;SDS011;19510;54.486;9.046;2023-08-20T02:34:55;26.52;;;11.57;;
16837;SDS011;19510;54.486;9.046;2023-08-20T02:37:20;18.20;;;9.60;;
16837;SDS011;19510;54.486;9.046;2023-08-20T02:39:47;17.00;;;9.52;;
16837;SDS011;19510;54.486;9.046;2023-08-20T02:42:13;17.33;;;10.18;;
16837;SDS011;19510;54.486;9.046;2023-08-20T02:44:38;19.50;;;9.35;;
16837;SDS011;19510;54.486;9.046;2023-08-20T02:47:04;17.80;;;8.75;;
16837;SDS011;19510;54.486;9.046;2023-08-20T02:49:30;14.45;;;9.23;;
16837;SDS011;19510;54.486;9.046;2023-08-20T02:51:55;15.00;;;6.82;;
16837;SDS011;19510;54.486;9.046;2023-08-20T02:54:21;14.82;;;6.85;;
16837;SDS011;19510;54.486;9.046;2023-08-20T02:56:50;10.63;;;6.15;;
16837;SDS011;19510;54.486;9.046;2023-08-20T02:59:16;10.00;;;5.97;;
16837;SDS011;19510;54.486;9.046;2023-08-20T03:01:44;10.15;;;6.38;;
16837;SDS011;19510;54.486;9.046;2023-08-20T03:04:10;14.73;;;7.18;;
16837;SDS011;19510;54.486;9.046;2023-08-20T03:06:35;9.32;;;5.88;;
16837;SDS011;19510;54.486;9.046;2023-08-20T03:09:04;10.88;;;6.25;;
16837;SDS011;19510;54.486;9.046;2023-08-20T03:11:29;9.18;;;5.80;;
16837;SDS011;19510;54.486;9.046;2023-08-20T03:13:57;9.85;;;5.90;;
16837;SDS011;19510;54.486;9.046;2023-08-20T03:16:23;11.45;;;7.13;;
16837;SDS011;19510;54.486;9.046;2023-08-20T03:18:49;8.50;;;6.07;;
16837;SDS011;19510;54.486;9.046;2023-08-20T03:24:36;6.55;;;4.63;;
16837;SDS011;19510;54.486;9.046;2023-08-20T03:27:02;9.38;;;4.97;;
16837;SDS011;19510;54.486;9.046;2023-08-20T03:29:28;6.75;;;4.70;;
16837;SDS011;19510;54.486;9.046;2023-08-20T03:31:53;7.68;;;4.47;;
16837;SDS011;19510;54.486;9.046;2023-08-20T03:34:21;7.45;;;4.30;;
16837;SDS011;19510;54.486;9.046;2023-08-20T03:36:47;6.05;;;4.03;;
16837;SDS011;19510;54.486;9.046;2023-08-20T03:39:13;5.38;;;4.10;;
16837;SDS011;19510;54.486;9.046;2023-08-20T03:41:39;9.15;;;4.25;;
16837;SDS011;19510;54.486;9.046;2023-08-20T03:44:04;7.82;;;4.30;;
16837;SDS011;19510;54.486;9.046;2023-08-20T03:46:30;7.60;;;4.10;;
16837;SDS011;19510;54.486;9.046;2023-08-20T03:48:56;4.07;;;3.60;;
16837;SDS011;19510;54.486;9.046;2023-08-20T03:51:24;9.82;;;4.18;;
16837;SDS011;19510;54.486;9.046;2023-08-20T03:53:49;6.93;;;3.88;;
16837;SDS011;19510;54.486;9.046;2023-08-20T03:56:15;6.40;;;3.70;;
16837;SDS011;19510;54.486;9.046;2023-08-20T03:58:41;9.70;;;4.55;;
16837;SDS011;19510;54.486;9.046;2023-08-20T04:01:07;10.10;;;4.63;;
16837;SDS011;19510;54.486;9.046;2023-08-20T04:03:32;6.82;;;4.10;;
16837;SDS011;19510;54.486;9.046;2023-08-20T04:05:58;6.18;;;4.22;;
16837;SDS011;19510;54.486;9.046;2023-08-20T04:08:24;7.00;;;4.28;;
16837;SDS011;19510;54.486;9.046;2023-08-20T04:10:49;6.03;;;3.92;;
16837;SDS011;19510;54.486;9.046;2023-08-20T04:13:15;8.30;;;4.63;;
16837;SDS011;19510;54.486;9.046;2023-08-20T04:15:41;7.75;;;4.50;;
16837;SDS011;19510;54.486;9.046;2023-08-20T04:18:07;10.27;;;4.80;;
16837;SDS011;19510;54.486;9.046;2023-08-20T04:20:33;12.02;;;4.65;;
16837;SDS011;19510;54.486;9.046;2023-08-20T04:22:59;12.02;;;4.45;;
16837;SDS011;19510;54.486;9.046;2023-08-20T04:25:24;8.00;;;4.70;;
16837;SDS011;19510;54.486;9.046;2023-08-20T04:27:50;9.60;;;4.75;;
16837;SDS011;19510;54.486;9.046;2023-08-20T04:30:16;9.63;;;4.40;;
16837;SDS011;19510;54.486;9.046;2023-08-20T04:32:42;6.53;;;4.32;;
16837;SDS011;19510;54.486;9.046;2023-08-20T04:35:07;8.65;;;4.43;;
16837;SDS011;19510;54.486;9.046;2023-08-20T04:37:36;6.95;;;3.85;;
16837;SDS011;19510;54.486;9.046;2023-08-20T04:40:02;6.13;;;3.30;;
16837;SDS011;19510;54.486;9.046;2023-08-20T04:42:31;6.00;;;3.53;;
16837;SDS011;19510;54.486;9.046;2023-08-20T04:44:57;4.82;;;3.17;;
16837;SDS011;19510;54.486;9.046;2023-08-20T04:47:22;3.60;;;2.97;;
16837;SDS011;19510;54.486;9.046;2023-08-20T04:49:48;6.68;;;2.90;;
16837;SDS011;19510;54.486;9.046;2023-08-20T04:52:14;5.00;;;2.95;;
16837;SDS011;19510;54.486;9.046;2023-08-20T04:54:39;3.33;;;2.90;;
16837;SDS011;19510;54.486;9.046;2023-08-20T04:57:05;5.35;;;2.90;;
16837;SDS011;19510;54.486;9.046;2023-08-20T04:59:33;4.30;;;2.80;;
16837;SDS011;19510;54.486;9.046;2023-08-20T05:01:59;3.88;;;2.88;;
16837;SDS011;19510;54.486;9.046;2023-08-20T05:04:25;7.38;;;3.13;;
16837;SDS011;19510;54.486;9.046;2023-08-20T05:06:50;4.15;;;3.00;;
16837;SDS011;19510;54.486;9.046;2023-08-20T05:09:16;10.88;;;3.40;;
16837;SDS011;19510;54.486;9.046;2023-08-20T05:11:42;3.85;;;2.92;;
16837;SDS011;19510;54.486;9.046;2023-08-20T05:14:08;7.55;;;3.20;;
16837;SDS011;19510;54.486;9.046;2023-08-20T05:16:33;6.25;;;3.08;;
16837;SDS011;19510;54.486;9.046;2023-08-20T05:18:59;6.65;;;3.33;;
16837;SDS011;19510;54.486;9.046;2023-08-20T05:21:25;5.65;;;3.40;;
16837;SDS011;19510;54.486;9.046;2023-08-20T05:23:50;6.20;;;3.22;;
16837;SDS011;19510;54.486;9.046;2023-08-20T05:26:16;10.85;;;3.97;;
16837;SDS011;19510;54.486;9.046;2023-08-20T05:28:42;10.23;;;4.00;;
16837;SDS011;19510;54.486;9.046;2023-08-20T05:31:10;6.22;;;3.38;;
16837;SDS011;19510;54.486;9.046;2023-08-20T05:33:36;9.85;;;3.92;;
16837;SDS011;19510;54.486;9.046;2023-08-20T05:36:01;5.10;;;3.47;;
16837;SDS011;19510;54.486;9.046;2023-08-20T05:38:27;7.20;;;3.28;;
16837;SDS011;19510;54.486;9.046;2023-08-20T05:40:53;4.97;;;3.67;;
16837;SDS011;19510;54.486;9.046;2023-08-20T05:43:19;7.35;;;3.95;;
16837;SDS011;19510;54.486;9.046;2023-08-20T05:45:47;7.93;;;3.55;;
16837;SDS011;19510;54.486;9.046;2023-08-20T05:48:12;6.93;;;4.10;;
16837;SDS011;19510;54.486;9.046;2023-08-20T05:50:38;7.07;;;3.55;;
16837;SDS011;19510;54.486;9.046;2023-08-20T05:53:03;5.80;;;3.38;;
16837;SDS011;19510;54.486;9.046;2023-08-20T05:55:29;6.18;;;3.25;;
16837;SDS011;19510;54.486;9.046;2023-08-20T05:57:55;6.60;;;3.15;;
16837;SDS011;19510;54.486;9.046;2023-08-20T06:00:21;6.75;;;3.30;;
16837;SDS011;19510;54.486;9.046;2023-08-20T06:02:49;5.13;;;3.10;;
16837;SDS011;19510;54.486;9.046;2023-08-20T06:05:15;6.20;;;2.92;;
16837;SDS011;19510;54.486;9.046;2023-08-20T06:07:41;7.68;;;3.00;;
16837;SDS011;19510;54.486;9.046;2023-08-20T06:10:06;7.00;;;3.10;;
16837;SDS011;19510;54.486;9.046;2023-08-20T06:12:35;4.00;;;3.00;;
16837;SDS011;19510;54.486;9.046;2023-08-20T06:15:01;9.82;;;4.53;;
16837;SDS011;19510;54.486;9.046;2023-08-20T06:17:29;6.43;;;3.50;;
16837;SDS011;19510;54.486;9.046;2023-08-20T06:19:54;7.13;;;3.15;;
16837;SDS011;19510;54.486;9.046;2023-08-20T06:22:20;7.50;;;3.63;;
16837;SDS011;19510;54.486;9.046;2023-08-20T06:24:46;7.32;;;4.13;;
16837;SDS011;19510;54.486;9.046;2023-08-20T06:27:11;7.00;;;3.78;;
16837;SDS011;19510;54.486;9.046;2023-08-20T06:29:39;12.07;;;8.60;;
16837;SDS011;19510;54.486;9.046;2023-08-20T06:38:17;6.50;;;3.97;;
16837;SDS011;19510;54.486;9.046;2023-08-20T06:40:43;8.25;;;4.45;;
16837;SDS011;19510;54.486;9.046;2023-08-20T06:43:08;8.57;;;5.03;;
16837;SDS011;19510;54.486;9.046;2023-08-20T06:45:34;6.88;;;4.60;;
16837;SDS011;19510;54.486;9.046;2023-08-20T06:48:00;12.25;;;5.63;;
16837;SDS011;19510;54.486;9.046;2023-08-20T06:50:25;8.38;;;4.82;;
16837;SDS011;19510;54.486;9.046;2023-08-20T06:52:51;8.00;;;4.95;;
16837;SDS011;19510;54.486;9.046;2023-08-20T06:55:22;10.52;;;5.78;;
16837;SDS011;19510;54.486;9.046;2023-08-20T06:57:48;10.57;;;6.13;;
16837;SDS011;19510;54.486;9.046;2023-08-20T07:00:13;7.65;;;5.13;;
16837;SDS011;19510;54.486;9.046;2023-08-20T07:02:39;12.60;;;5.63;;
16837;SDS011;19510;54.486;9.046;2023-08-20T07:05:05;9.07;;;4.93;;
16837;SDS011;19510;54.486;9.046;2023-08-20T07:07:34;9.90;;;5.90;;
16837;SDS011;19510;54.486;9.046;2023-08-20T07:10:03;9.57;;;6.03;;
16837;SDS011;19510;54.486;9.046;2023-08-20T07:12:29;15.57;;;6.18;;
16837;SDS011;19510;54.486;9.046;2023-08-20T07:18:16;10.70;;;6.07;;
16837;SDS011;19510;54.486;9.046;2023-08-20T07:20:42;10.75;;;6.60;;
16837;SDS011;19510;54.486;9.046;2023-08-20T07:23:09;12.70;;;7.72;;
16837;SDS011;19510;54.486;9.046;2023-08-20T07:25:38;10.13;;;6.32;;
16837;SDS011;19510;54.486;9.046;2023-08-20T07:28:05;12.45;;;6.45;;
16837;SDS011;19510;54.486;9.046;2023-08-20T07:30:35;11.93;;;7.15;;
16837;SDS011;19510;54.486;9.046;2023-08-20T07:36:26;11.45;;;6.18;;
16837;SDS011;19510;54.486;9.046;2023-08-20T07:38:55;16.80;;;6.50;;
16837;SDS011;19510;54.486;9.046;2023-08-20T07:41:21;12.68;;;6.47;;
16837;SDS011;19510;54.486;9.046;2023-08-20T07:43:47;12.27;;;6.22;;
16837;SDS011;19510;54.486;9.046;2023-08-20T07:46:14;14.02;;;5.68;;
16837;SDS011;19510;54.486;9.046;2023-08-20T07:48:40;11.40;;;5.30;;
16837;SDS011;19510;54.486;9.046;2023-08-20T07:51:07;9.18;;;5.60;;
16837;SDS011;19510;54.486;9.046;2023-08-20T07:53:37;12.20;;;4.30;;
16837;SDS011;19510;54.486;9.046;2023-08-20T07:56:03;10.60;;;4.00;;
16837;SDS011;19510;54.486;9.046;2023-08-20T07:58:29;11.18;;;3.53;;
16837;SDS011;19510;54.486;9.046;2023-08-20T08:00:55;10.00;;;3.47;;
16837;SDS011;19510;54.486;9.046;2023-08-20T08:03:24;5.22;;;2.83;;
16837;SDS011;19510;54.486;9.046;2023-08-20T08:05:53;6.32;;;2.90;;
16837;SDS011;19510;54.486;9.046;2023-08-20T08:08:19;13.40;;;2.38;;
16837;SDS011;19510;54.486;9.046;2023-08-20T08:10:46;8.75;;;1.95;;
16837;SDS011;19510;54.486;9.046;2023-08-20T08:13:19;21.90;;;12.13;;
16837;SDS011;19510;54.486;9.046;2023-08-20T08:15:46;6.57;;;3.33;;
16837;SDS011;19510;54.486;9.046;2023-08-20T08:18:12;7.78;;;2.40;;
16837;SDS011;19510;54.486;9.046;2023-08-20T08:20:43;5.30;;;2.35;;
16837;SDS011;19510;54.486;9.046;2023-08-20T08:23:11;8.23;;;2.20;;
16837;SDS011;19510;54.486;9.046;2023-08-20T08:25:36;4.70;;;2.00;;
16837;SDS011;19510;54.486;9.046;2023-08-20T08:28:02;4.15;;;1.52;;
16837;SDS011;19510;54.486;9.046;2023-08-20T08:30:29;7.57;;;1.65;;
16837;SDS011;19510;54.486;9.046;2023-08-20T08:32:58;7.15;;;1.60;;
16837;SDS011;19510;54.486;9.046;2023-08-20T08:35:26;4.55;;;1.70;;
16837;SDS011;19510;54.486;9.046;2023-08-20T08:37:52;3.15;;;1.40;;
16837;SDS011;19510;54.486;9.046;2023-08-20T08:40:17;7.07;;;1.38;;
16837;SDS011;19510;54.486;9.046;2023-08-20T08:42:45;8.93;;;1.80;;
16837;SDS011;19510;54.486;9.046;2023-08-20T08:45:14;7.90;;;1.60;;
16837;SDS011;19510;54.486;9.046;2023-08-20T08:47:42;4.35;;;1.70;;
16837;SDS011;19510;54.486;9.046;2023-08-20T08:50:10;3.53;;;1.48;;
16837;SDS011;19510;54.486;9.046;2023-08-20T08:52:51;4.13;;;1.40;;
16837;SDS011;19510;54.486;9.046;2023-08-20T08:55:18;6.18;;;1.55;;
16837;SDS011;19510;54.486;9.046;2023-08-20T08:57:45;8.35;;;1.35;;
16837;SDS011;19510;54.486;9.046;2023-08-20T09:00:10;7.28;;;1.50;;
16837;SDS011;19510;54.486;9.046;2023-08-20T09:02:37;5.57;;;1.58;;
16837;SDS011;19510;54.486;9.046;2023-08-20T09:05:05;5.68;;;1.63;;
16837;SDS011;19510;54.486;9.046;2023-08-20T09:07:33;8.68;;;1.50;;
16837;SDS011;19510;54.486;9.046;2023-08-20T09:09:59;5.80;;;1.50;;
16837;SDS011;19510;54.486;9.046;2023-08-20T09:12:25;6.88;;;1.30;;
16837;SDS011;19510;54.486;9.046;2023-08-20T09:14:54;7.07;;;1.45;;
16837;SDS011;19510;54.486;9.046;2023-08-20T09:17:26;5.15;;;1.70;;
16837;SDS011;19510;54.486;9.046;2023-08-20T09:19:53;3.38;;;1.45;;
16837;SDS011;19510;54.486;9.046;2023-08-20T09:22:21;5.45;;;1.27;;
16837;SDS011;19510;54.486;9.046;2023-08-20T09:24:52;8.80;;;1.63;;
16837;SDS011;19510;54.486;9.046;2023-08-20T09:27:22;5.45;;;1.20;;
16837;SDS011;19510;54.486;9.046;2023-08-20T09:29:50;6.18;;;1.35;;
16837;SDS011;19510;54.486;9.046;2023-08-20T09:32:26;3.03;;;0.90;;
16837;SDS011;19510;54.486;9.046;2023-08-20T09:34:53;8.13;;;1.30;;
16837;SDS011;19510;54.486;9.046;2023-08-20T09:37:24;3.15;;;1.10;;
16837;SDS011;19510;54.486;9.046;2023-08-20T09:39:50;6.70;;;1.45;;
16837;SDS011;19510;54.486;9.046;2023-08-20T09:42:16;5.13;;;1.17;;
16837;SDS011;19510;54.486;9.046;2023-08-20T09:44:46;2.50;;;1.10;;
16837;SDS011;19510;54.486;9.046;2023-08-20T09:47:14;3.83;;;1.10;;
16837;SDS011;19510;54.486;9.046;2023-08-20T09:49:44;3.50;;;1.10;;
16837;SDS011;19510;54.486;9.046;2023-08-20T09:52:19;4.85;;;1.42;;
16837;SDS011;19510;54.486;9.046;2023-08-20T09:55:07;5.35;;;1.45;;
16837;SDS011;19510;54.486;9.046;2023-08-20T09:57:35;4.60;;;1.10;;
16837;SDS011;19510;54.486;9.046;2023-08-20T10:00:03;5.25;;;1.55;;
16837;SDS011;19510;54.486;9.046;2023-08-20T10:02:39;3.83;;;1.30;;
16837;SDS011;19510;54.486;9.046;2023-08-20T10:05:11;7.93;;;1.70;;
16837;SDS011;19510;54.486;9.046;2023-08-20T10:07:37;8.68;;;1.95;;
16837;SDS011;19510;54.486;9.046;2023-08-20T10:10:04;6.82;;;1.60;;
16837;SDS011;19510;54.486;9.046;2023-08-20T10:12:32;7.00;;;1.33;;
16837;SDS011;19510;54.486;9.046;2023-08-20T10:14:59;5.45;;;1.50;;
16837;SDS011;19510;54.486;9.046;2023-08-20T10:17:28;7.20;;;1.20;;
16837;SDS011;19510;54.486;9.046;2023-08-20T10:19:55;7.57;;;1.38;;
16837;SDS011;19510;54.486;9.046;2023-08-20T10:22:22;5.47;;;1.38;;
16837;SDS011;19510;54.486;9.046;2023-08-20T10:25:08;4.75;;;1.58;;
16837;SDS011;19510;54.486;9.046;2023-08-20T10:27:40;9.85;;;1.60;;
16837;SDS011;19510;54.486;9.046;2023-08-20T10:30:16;6.68;;;1.90;;
16837;SDS011;19510;54.486;9.046;2023-08-20T10:32:51;5.70;;;1.83;;
16837;SDS011;19510;54.486;9.046;2023-08-20T10:35:19;7.50;;;1.60;;
16837;SDS011;19510;54.486;9.046;2023-08-20T10:38:05;7.53;;;1.83;;
16837;SDS011;19510;54.486;9.046;2023-08-20T10:48:38;6.40;;;1.77;;
16837;SDS011;19510;54.486;9.046;2023-08-20T10:51:18;5.30;;;1.80;;
16837;SDS011;19510;54.486;9.046;2023-08-20T10:56:40;5.75;;;1.58;;
16837;SDS011;19510;54.486;9.046;2023-08-20T11:01:49;5.20;;;1.38;;
16837;SDS011;19510;54.486;9.046;2023-08-20T11:04:16;4.40;;;1.80;;
16837;SDS011;19510;54.486;9.046;2023-08-20T11:06:46;4.95;;;1.35;;
16837;SDS011;19510;54.486;9.046;2023-08-20T11:09:17;4.82;;;1.08;;
16837;SDS011;19510;54.486;9.046;2023-08-20T11:11:43;6.55;;;1.60;;
16837;SDS011;19510;54.486;9.046;2023-08-20T11:14:13;4.45;;;1.15;;
16837;SDS011;19510;54.486;9.046;2023-08-20T11:16:40;2.15;;;1.05;;
16837;SDS011;19510;54.486;9.046;2023-08-20T11:19:08;6.05;;;1.33;;
16837;SDS011;19510;54.486;9.046;2023-08-20T11:21:42;6.40;;;1.77;;
16837;SDS011;19510;54.486;9.046;2023-08-20T11:24:09;2.78;;;1.10;;
16837;SDS011;19510;54.486;9.046;2023-08-20T11:26:36;11.65;;;2.22;;
16837;SDS011;19510;54.486;9.046;2023-08-20T11:29:07;6.88;;;1.63;;
16837;SDS011;19510;54.486;9.046;2023-08-20T11:31:33;6.10;;;1.67;;
16837;SDS011;19510;54.486;9.046;2023-08-20T11:34:02;4.20;;;1.25;;
16837;SDS011;19510;54.486;9.046;2023-08-20T11:36:28;5.68;;;1.33;;
16837;SDS011;19510;54.486;9.046;2023-08-20T11:38:54;4.28;;;1.75;;
16837;SDS011;19510;54.486;9.046;2023-08-20T11:41:20;9.25;;;1.80;;
16837;SDS011;19510;54.486;9.046;2023-08-20T11:43:47;5.50;;;1.48;;
16837;SDS011;19510;54.486;9.046;2023-08-20T11:46:15;4.55;;;1.42;;
16837;SDS011;19510;54.486;9.046;2023-08-20T11:49:03;4.95;;;1.50;;
16837;SDS011;19510;54.486;9.046;2023-08-20T11:51:36;4.38;;;1.30;;
16837;SDS011;19510;54.486;9.046;2023-08-20T11:54:13;7.05;;;1.45;;
16837;SDS011;19510;54.486;9.046;2023-08-20T11:56:46;5.88;;;1.20;;
16837;SDS011;19510;54.486;9.046;2023-08-20T11:59:16;7.93;;;1.77;;
16837;SDS011;19510;54.486;9.046;2023-08-20T12:01:52;6.00;;;1.60;;
16837;SDS011;19510;54.486;9.046;2023-08-20T12:04:23;5.70;;;1.58;;
16837;SDS011;19510;54.486;9.046;2023-08-20T12:07:01;8.23;;;1.33;;
16837;SDS011;19510;54.486;9.046;2023-08-20T12:09:27;7.78;;;1.77;;
16837;SDS011;19510;54.486;9.046;2023-08-20T12:11:54;10.10;;;1.98;;
16837;SDS011;19510;54.486;9.046;2023-08-20T12:14:23;5.35;;;1.48;;
16837;SDS011;19510;54.486;9.046;2023-08-20T12:16:52;8.25;;;1.98;;
16837;SDS011;19510;54.486;9.046;2023-08-20T12:19:19;9.40;;;1.60;;
16837;SDS011;19510;54.486;9.046;2023-08-20T12:21:45;6.22;;;1.67;;
16837;SDS011;19510;54.486;9.046;2023-08-20T12:24:13;6.32;;;1.65;;
16837;SDS011;19510;54.486;9.046;2023-08-20T12:26:39;5.10;;;1.75;;
16837;SDS011;19510;54.486;9.046;2023-08-20T12:29:07;5.32;;;1.70;;
16837;SDS011;19510;54.486;9.046;2023-08-20T12:31:33;5.47;;;1.60;;
16837;SDS011;19510;54.486;9.046;2023-08-20T12:34:05;6.03;;;1.85;;
16837;SDS011;19510;54.486;9.046;2023-08-20T12:36:31;5.78;;;1.77;;
16837;SDS011;19510;54.486;9.046;2023-08-20T12:38:58;4.65;;;1.55;;
16837;SDS011;19510;54.486;9.046;2023-08-20T12:41:24;5.57;;;1.58;;
16837;SDS011;19510;54.486;9.046;2023-08-20T12:43:50;6.82;;;1.50;;
16837;SDS011;19510;54.486;9.046;2023-08-20T12:46:16;4.70;;;1.30;;
16837;SDS011;19510;54.486;9.046;2023-08-20T12:48:42;9.57;;;2.05;;
16837;SDS011;19510;54.486;9.046;2023-08-20T12:51:08;7.22;;;1.80;;
16837;SDS011;19510;54.486;9.046;2023-08-20T12:53:39;7.55;;;2.05;;
16837;SDS011;19510;54.486;9.046;2023-08-20T12:56:05;10.15;;;1.80;;
16837;SDS011;19510;54.486;9.046;2023-08-20T12:58:31;8.15;;;1.92;;
16837;SDS011;19510;54.486;9.046;2023-08-20T13:00:57;11.90;;;1.73;;
16837;SDS011;19510;54.486;9.046;2023-08-20T13:03:22;10.00;;;2.17;;
16837;SDS011;19510;54.486;9.046;2023-08-20T13:05:48;6.22;;;1.60;;
16837;SDS011;19510;54.486;9.046;2023-08-20T13:08:15;11.80;;;1.83;;
16837;SDS011;19510;54.486;9.046;2023-08-20T13:10:41;6.53;;;1.60;;
16837;SDS011;19510;54.486;9.046;2023-08-20T13:13:11;7.10;;;1.77;;
16837;SDS011;19510;54.486;9.046;2023-08-20T13:15:38;9.30;;;2.58;;
16837;SDS011;19510;54.486;9.046;2023-08-20T13:18:04;8.35;;;1.75;;
16837;SDS011;19510;54.486;9.046;2023-08-20T13:20:30;10.13;;;2.13;;
16837;SDS011;19510;54.486;9.046;2023-08-20T13:22:56;8.75;;;2.28;;
16837;SDS011;19510;54.486;9.046;2023-08-20T13:25:22;6.50;;;1.60;;
16837;SDS011;19510;54.486;9.046;2023-08-20T13:27:48;5.82;;;1.63;;
16837;SDS011;19510;54.486;9.046;2023-08-20T13:30:14;7.07;;;1.73;;
16837;SDS011;19510;54.486;9.046;2023-08-20T13:32:40;7.38;;;1.95;;
16837;SDS011;19510;54.486;9.046;2023-08-20T13:35:06;7.18;;;1.50;;
16837;SDS011;19510;54.486;9.046;2023-08-20T13:37:33;8.88;;;2.85;;
16837;SDS011;19510;54.486;9.046;2023-08-20T13:39:59;8.30;;;1.80;;
16837;SDS011;19510;54.486;9.046;2023-08-20T13:42:25;6.07;;;1.63;;
16837;SDS011;19510;54.486;9.046;2023-08-20T13:44:51;6.38;;;1.88;;
16837;SDS011;19510;54.486;9.046;2023-08-20T13:47:17;6.30;;;1.50;;
16837;SDS011;19510;54.486;9.046;2023-08-20T13:49:42;9.70;;;1.98;;
16837;SDS011;19510;54.486;9.046;2023-08-20T13:52:09;7.43;;;1.52;;
16837;SDS011;19510;54.486;9.046;2023-08-20T13:54:35;7.45;;;1.92;;
16837;SDS011;19510;54.486;9.046;2023-08-20T13:57:02;6.15;;;1.60;;
16837;SDS011;19510;54.486;9.046;2023-08-20T13:59:30;9.20;;;1.70;;
16837;SDS011;19510;54.486;9.046;2023-08-20T14:01:56;6.47;;;1.92;;
16837;SDS011;19510;54.486;9.046;2023-08-20T14:04:23;7.65;;;1.88;;
16837;SDS011;19510;54.486;9.046;2023-08-20T14:06:51;7.75;;;1.92;;
16837;SDS011;19510;54.486;9.046;2023-08-20T14:09:17;8.40;;;1.73;;
16837;SDS011;19510;54.486;9.046;2023-08-20T14:11:43;6.22;;;1.92;;
16837;SDS011;19510;54.486;9.046;2023-08-20T14:14:10;7.32;;;1.70;;
16837;SDS011;19510;54.486;9.046;2023-08-20T14:16:35;8.85;;;2.38;;
16837;SDS011;19510;54.486;9.046;2023-08-20T14:19:01;8.73;;;1.80;;
16837;SDS011;19510;54.486;9.046;2023-08-20T14:21:27;7.20;;;1.90;;
16837;SDS011;19510;54.486;9.046;2023-08-20T14:23:53;4.45;;;1.60;;
16837;SDS011;19510;54.486;9.046;2023-08-20T14:26:18;8.85;;;1.80;;
16837;SDS011;19510;54.486;9.046;2023-08-20T14:28:44;6.45;;;2.17;;
16837;SDS011;19510;54.486;9.046;2023-08-20T14:31:10;5.50;;;1.58;;
16837;SDS011;19510;54.486;9.046;2023-08-20T14:33:38;8.85;;;1.95;;
16837;SDS011;19510;54.486;9.046;2023-08-20T14:36:04;6.60;;;1.60;;
16837;SDS011;19510;54.486;9.046;2023-08-20T14:38:30;9.43;;;1.90;;
16837;SDS011;19510;54.486;9.046;2023-08-20T14:41:01;8.00;;;2.00;;
16837;SDS011;19510;54.486;9.046;2023-08-20T14:43:30;11.63;;;2.95;;
16837;SDS011;19510;54.486;9.046;2023-08-20T14:45:57;5.53;;;1.65;;
16837;SDS011;19510;54.486;9.046;2023-08-20T14:48:26;10.02;;;2.60;;
16837;SDS011;19510;54.486;9.046;2023-08-20T14:50:52;7.65;;;1.95;;
16837;SDS011;19510;54.486;9.046;2023-08-20T14:53:20;7.32;;;2.33;;
16837;SDS011;19510;54.486;9.046;2023-08-20T14:55:46;9.10;;;2.00;;
16837;SDS011;19510;54.486;9.046;2023-08-20T14:58:12;9.65;;;2.00;;
16837;SDS011;19510;54.486;9.046;2023-08-20T15:00:38;9.55;;;2.95;;
16837;SDS011;19510;54.486;9.046;2023-08-20T15:03:03;9.63;;;2.42;;
16837;SDS011;19510;54.486;9.046;2023-08-20T15:05:29;18.08;;;2.60;;
16837;SDS011;19510;54.486;9.046;2023-08-20T15:07:55;9.63;;;2.13;;
16837;SDS011;19510;54.486;9.046;2023-08-20T15:10:21;8.82;;;2.35;;
16837;SDS011;19510;54.486;9.046;2023-08-20T15:12:47;12.23;;;2.40;;
16837;SDS011;19510;54.486;9.046;2023-08-20T15:15:13;6.93;;;1.90;;
16837;SDS011;19510;54.486;9.046;2023-08-20T15:17:38;5.63;;;1.73;;
16837;SDS011;19510;54.486;9.046;2023-08-20T15:20:05;7.75;;;2.00;;